createdAt,value
2019-06-07T00:02:13.141Z,7.13
2019-06-07T00:04:41.864Z,5.43
2019-06-07T00:07:12.600Z,6.33
2019-06-07T00:09:42.212Z,6.77
2019-06-07T00:12:14.053Z,6.73
2019-06-07T00:14:42.520Z,6.50
2019-06-07T00:17:15.112Z,6.60
2019-06-07T00:19:42.623Z,5.40
2019-06-07T00:22:18.367Z,7.83
2019-06-07T00:24:42.759Z,6.80
2019-06-07T00:27:12.884Z,5.33
2019-06-07T00:29:42.259Z,7.10
2019-06-07T00:32:12.308Z,5.87
2019-06-07T00:34:42.347Z,8.10
2019-06-07T00:37:12.738Z,5.23
2019-06-07T00:39:42.651Z,6.57
2019-06-07T00:42:14.703Z,6.87
2019-06-07T00:44:42.800Z,5.23
2019-06-07T00:47:13.064Z,7.80
2019-06-07T00:49:42.479Z,6.93
2019-06-07T00:52:58.565Z,7.60
2019-06-07T00:54:42.655Z,6.20
2019-06-07T00:57:12.496Z,6.60
2019-06-07T00:59:42.319Z,6.90
2019-06-07T01:02:14.585Z,7.17
2019-06-07T01:04:42.460Z,5.83
2019-06-07T01:07:12.897Z,6.63
2019-06-07T01:09:42.548Z,5.90
2019-06-07T01:12:11.788Z,7.50
2019-06-07T01:14:41.248Z,6.50
2019-06-07T01:17:39.225Z,6.80
2019-06-07T01:19:56.537Z,7.87
2019-06-07T01:22:28.979Z,8.50
2019-06-07T01:24:56.707Z,7.60
2019-06-07T01:27:25.953Z,7.10
2019-06-07T01:29:55.259Z,7.33
2019-06-07T01:32:27.097Z,6.60
2019-06-07T01:34:55.444Z,8.60
2019-06-07T01:37:27.757Z,8.40
2019-06-07T01:39:55.692Z,9.10
2019-06-07T01:42:28.896Z,7.97
2019-06-07T01:44:55.880Z,6.93
2019-06-07T01:47:28.753Z,7.33
2019-06-07T01:49:56.059Z,7.07
2019-06-07T01:52:26.741Z,9.40
2019-06-07T01:54:58.926Z,9.30
2019-06-07T01:57:38.417Z,10.03
2019-06-07T01:59:57.767Z,10.53
2019-06-07T02:02:30.062Z,8.57
2019-06-07T02:04:57.895Z,11.53
2019-06-07T02:07:30.385Z,8.73
2019-06-07T02:09:58.072Z,9.10
2019-06-07T02:12:37.568Z,10.13
2019-06-07T02:14:58.205Z,10.90
2019-06-07T02:17:30.141Z,9.33
2019-06-07T02:19:58.424Z,11.37
2019-06-07T02:22:32.089Z,8.67
2019-06-07T02:25:34.464Z,9.20
2019-06-07T02:27:32.583Z,10.10
2019-06-07T02:30:35.281Z,10.43
2019-06-07T02:32:34.673Z,9.97
2019-06-07T02:35:02.648Z,10.87
2019-06-07T02:37:36.567Z,9.23
2019-06-07T02:40:02.794Z,9.13
2019-06-07T02:42:36.629Z,9.93
2019-06-07T02:45:02.928Z,9.80
2019-06-07T02:47:36.049Z,8.87
2019-06-07T02:50:03.173Z,8.87
2019-06-07T02:52:38.620Z,11.17
2019-06-07T02:55:03.389Z,11.30
2019-06-07T02:57:36.847Z,8.60
2019-06-07T03:00:17.140Z,10.70
2019-06-07T03:02:40.785Z,9.37
2019-06-07T03:05:05.719Z,8.90
2019-06-07T03:07:40.426Z,9.43
2019-06-07T03:10:09.146Z,8.87
2019-06-07T03:12:40.691Z,8.80
2019-06-07T03:15:30.092Z,8.37
2019-06-07T03:18:00.493Z,8.97
2019-06-07T03:20:34.421Z,9.43
2019-06-07T03:23:05.007Z,9.37
2019-06-07T03:25:39.599Z,8.90
2019-06-07T03:28:08.816Z,9.13
2019-06-07T03:30:57.088Z,10.20
2019-06-07T03:33:09.328Z,10.77
2019-06-07T03:35:40.746Z,10.63
2019-06-07T03:38:10.229Z,10.97
2019-06-07T03:40:40.258Z,13.10
2019-06-07T03:43:10.109Z,10.70
2019-06-07T03:45:41.533Z,13.20
2019-06-07T03:48:10.568Z,12.13
2019-06-07T03:50:42.396Z,14.53
2019-06-07T03:53:11.664Z,14.83
2019-06-07T03:55:41.575Z,16.77
2019-06-07T03:58:31.563Z,17.70
2019-06-07T04:00:43.210Z,15.37
2019-06-07T04:03:32.454Z,18.23
2019-06-07T04:05:43.851Z,15.53
2019-06-07T04:08:13.123Z,18.97
2019-06-07T04:10:58.619Z,16.80
2019-06-07T04:13:13.259Z,16.43
2019-06-07T04:15:42.491Z,16.53
2019-06-07T04:18:11.735Z,17.40
2019-06-07T04:20:41.606Z,17.63
2019-06-07T04:23:27.315Z,17.83
2019-06-07T04:25:42.717Z,15.30
2019-06-07T04:28:12.298Z,17.30
2019-06-07T04:30:43.136Z,14.70
2019-06-07T04:33:14.129Z,18.13
2019-06-07T04:35:45.328Z,18.33
2019-06-07T04:38:15.183Z,19.67
2019-06-07T04:40:45.399Z,18.10
2019-06-07T04:43:15.100Z,17.57
2019-06-07T04:45:50.721Z,19.47
2019-06-07T04:48:15.217Z,15.87
2019-06-07T04:50:44.563Z,15.93
2019-06-07T04:53:13.749Z,15.90
2019-06-07T04:55:42.971Z,17.10
2019-06-07T04:58:12.237Z,17.03
2019-06-07T05:00:54.148Z,17.93
2019-06-07T05:03:12.359Z,16.70
2019-06-07T05:05:43.739Z,14.83
2019-06-07T05:08:27.412Z,17.40
2019-06-07T05:10:44.066Z,20.03
2019-06-07T05:13:13.533Z,17.73
2019-06-07T05:15:42.775Z,21.60
2019-06-07T05:18:12.131Z,19.07
2019-06-07T05:20:44.306Z,20.27
2019-06-07T05:23:59.245Z,17.50
2019-06-07T05:25:44.821Z,16.90
2019-06-07T05:28:14.412Z,19.20
2019-06-07T05:31:04.002Z,23.50
2019-06-07T05:33:14.731Z,21.70
2019-06-07T05:35:44.256Z,20.43
2019-06-07T05:38:13.733Z,19.60
2019-06-07T05:40:48.336Z,22.53
2019-06-07T05:43:25.414Z,25.43
2019-06-07T05:45:57.172Z,20.23
2019-06-07T05:48:26.825Z,19.90
2019-06-07T05:50:57.614Z,21.00
2019-06-07T05:53:28.648Z,21.53
2019-06-07T05:55:58.908Z,24.00
2019-06-07T05:58:28.567Z,28.33
2019-06-07T06:01:40.941Z,26.50
2019-06-07T06:03:29.042Z,23.63
2019-06-07T06:05:58.291Z,24.00
2019-06-07T06:08:27.751Z,26.60
2019-06-07T06:10:57.099Z,26.70
2019-06-07T06:13:26.428Z,24.93
2019-06-07T06:16:01.807Z,27.80
2019-06-07T06:18:26.720Z,26.83
2019-06-07T06:21:15.527Z,25.07
2019-06-07T06:23:26.908Z,24.03
2019-06-07T06:25:57.913Z,27.37
2019-06-07T06:28:27.440Z,22.67
2019-06-07T06:30:56.863Z,23.90
2019-06-07T06:33:33.490Z,26.53
2019-06-07T06:35:57.065Z,24.93
2019-06-07T06:38:26.314Z,21.83
2019-06-07T06:41:14.759Z,26.60
2019-06-07T06:43:27.265Z,21.77
2019-06-07T06:45:56.643Z,23.33
2019-06-07T06:48:25.952Z,23.90
2019-06-07T06:50:55.639Z,21.47
2019-06-07T06:53:24.916Z,22.07
2019-06-07T06:55:54.179Z,19.80
2019-06-07T06:58:23.460Z,24.17
2019-06-07T07:01:05.341Z,20.23
2019-06-07T07:03:56.600Z,23.63
2019-06-07T07:05:56.256Z,25.40
2019-06-07T07:08:25.902Z,21.33
2019-06-07T07:10:55.580Z,21.87
2019-06-07T07:13:25.204Z,21.60
2019-06-07T07:15:57.764Z,21.50
2019-06-07T07:18:25.558Z,19.53
2019-06-07T07:20:57.304Z,20.50
2019-06-07T07:23:25.940Z,19.93
2019-06-07T07:25:59.435Z,20.33
2019-06-07T07:28:26.436Z,20.13
2019-06-07T07:30:57.440Z,20.67
2019-06-07T07:34:19.836Z,20.60
2019-06-07T07:36:19.091Z,20.23
2019-06-07T07:38:34.614Z,20.50
2019-06-07T07:41:14.518Z,18.53
2019-06-07T07:43:35.229Z,21.37
2019-06-07T07:46:27.976Z,17.23
2019-06-07T07:48:35.928Z,16.17
2019-06-07T07:51:05.532Z,15.58
2019-06-07T07:53:48.669Z,16.73
2019-06-07T07:56:06.773Z,14.03
2019-06-07T07:58:36.732Z,17.45
2019-06-07T08:01:10.879Z,15.53
2019-06-07T08:03:37.252Z,14.03
2019-06-07T08:06:06.856Z,13.20
2019-06-07T08:08:36.250Z,15.55
2019-06-07T08:11:06.038Z,14.70
2019-06-07T08:13:35.856Z,12.73
2019-06-07T08:16:12.210Z,13.22
2019-06-07T08:18:41.387Z,14.50
2019-06-07T08:21:24.565Z,14.33
2019-06-07T08:23:47.686Z,14.58
2019-06-07T08:26:22.811Z,14.53
2019-06-07T08:28:56.941Z,14.40
2019-06-07T08:31:24.855Z,15.32
2019-06-07T08:34:00.452Z,13.80
2019-06-07T08:36:42.098Z,17.42
2019-06-07T08:39:07.552Z,14.13
2019-06-07T08:41:36.089Z,12.95
2019-06-07T08:44:22.829Z,13.20
2019-06-07T08:46:40.801Z,16.97
2019-06-07T08:49:10.403Z,15.72
2019-06-07T08:51:39.659Z,14.83
2019-06-07T08:54:22.399Z,16.67
2019-06-07T08:56:39.855Z,18.05
2019-06-07T08:59:11.357Z,18.65
2019-06-07T09:01:40.062Z,15.45
2019-06-07T09:04:11.124Z,16.97
2019-06-07T09:07:02.737Z,16.17
2019-06-07T09:09:11.189Z,16.80
2019-06-07T09:11:40.464Z,18.20
2019-06-07T09:14:11.837Z,17.12
2019-06-07T09:16:41.129Z,15.58
2019-06-07T09:19:11.281Z,16.20
2019-06-07T09:21:40.789Z,14.13
2019-06-07T09:24:11.719Z,16.50
2019-06-07T09:26:43.999Z,16.40
2019-06-07T09:29:13.588Z,15.10
2019-06-07T09:31:52.720Z,14.28
2019-06-07T09:34:16.639Z,13.20
2019-06-07T09:36:47.824Z,15.15
2019-06-07T09:39:18.419Z,13.65
2019-06-07T09:41:50.358Z,15.65
2019-06-07T09:44:25.848Z,15.38
2019-06-07T09:47:14.195Z,17.02
2019-06-07T09:49:32.287Z,15.08
2019-06-07T09:51:59.755Z,14.47
2019-06-07T09:55:03.166Z,12.68
2019-06-07T09:57:04.081Z,13.68
2019-06-07T09:59:30.659Z,15.00
2019-06-07T10:02:03.601Z,12.28
2019-06-07T10:04:32.822Z,11.75
2019-06-07T10:07:10.550Z,11.68
2019-06-07T10:12:04.731Z,14.05
2019-06-07T10:14:34.223Z,11.60
2019-06-07T10:17:10.837Z,10.35
2019-06-07T10:19:46.484Z,12.40
2019-06-07T10:22:15.842Z,11.93
2019-06-07T10:24:45.766Z,11.90
2019-06-07T10:27:15.616Z,10.08
2019-06-07T10:29:44.873Z,11.55
2019-06-07T10:32:15.917Z,12.60
2019-06-07T10:34:45.243Z,12.58
2019-06-07T10:37:15.796Z,10.53
2019-06-07T10:39:48.910Z,10.10
2019-06-07T10:42:17.239Z,8.63
2019-06-07T10:44:46.520Z,8.90
2019-06-07T10:47:16.466Z,8.93
2019-06-07T10:49:45.718Z,8.35
2019-06-07T10:52:16.180Z,9.78
2019-06-07T10:54:48.364Z,8.63
2019-06-07T10:57:17.863Z,9.83
2019-06-07T10:59:47.062Z,8.18
2019-06-07T11:02:16.430Z,7.58
2019-06-07T11:04:45.888Z,9.05
2019-06-07T11:07:15.153Z,7.53
2019-06-07T11:09:44.680Z,8.43
2019-06-07T11:12:15.318Z,5.92
2019-06-07T11:14:44.942Z,5.80
2019-06-07T11:17:15.675Z,5.87
2019-06-07T11:19:45.133Z,6.20
2019-06-07T11:22:14.438Z,5.03
2019-06-07T11:24:44.486Z,5.10
2019-06-07T11:27:16.235Z,4.67
2019-06-07T11:29:44.928Z,5.37
2019-06-07T11:32:14.634Z,5.37
2019-06-07T11:34:43.980Z,5.53
2019-06-07T11:37:14.247Z,5.00
2019-06-07T11:39:44.843Z,4.37
2019-06-07T11:42:14.126Z,4.95
2019-06-07T11:44:56.185Z,3.85
2019-06-07T11:47:14.523Z,4.58
2019-06-07T11:49:44.091Z,3.75
2019-06-07T11:52:13.978Z,4.30
2019-06-07T11:54:43.302Z,4.33
2019-06-07T11:57:13.018Z,4.70
2019-06-07T11:59:42.399Z,5.30
2019-06-07T12:02:11.654Z,4.28
2019-06-07T12:04:41.023Z,4.33
2019-06-07T12:07:12.048Z,5.12
2019-06-07T12:09:55.442Z,3.60
2019-06-07T12:12:12.584Z,4.28
2019-06-07T12:14:41.986Z,3.92
2019-06-07T12:17:15.302Z,4.70
2019-06-07T12:19:44.729Z,4.25
2019-06-07T12:22:14.245Z,4.20
2019-06-07T12:24:43.704Z,4.03
2019-06-07T12:27:13.042Z,5.30
2019-06-07T12:29:42.622Z,5.28
2019-06-07T12:32:13.237Z,5.10
2019-06-07T12:34:42.571Z,5.37
2019-06-07T12:37:11.821Z,5.05
2019-06-07T12:39:43.401Z,4.78
2019-06-07T12:42:12.690Z,5.30
2019-06-07T12:44:42.028Z,6.58
2019-06-07T12:47:11.291Z,6.50
2019-06-07T12:49:40.750Z,5.33
2019-06-07T12:52:13.691Z,4.67
2019-06-07T12:54:40.911Z,6.83
2019-06-07T12:57:10.351Z,6.20
2019-06-07T12:59:39.682Z,6.40
2019-06-07T13:02:09.234Z,5.28
2019-06-07T13:04:40.679Z,6.17
2019-06-07T13:07:09.965Z,7.17
2019-06-07T13:09:39.472Z,6.15
2019-06-07T13:12:08.771Z,6.62
2019-06-07T13:14:38.196Z,6.42
2019-06-07T13:17:07.477Z,6.50
2019-06-07T13:19:36.755Z,5.22
2019-06-07T13:22:06.174Z,6.75
2019-06-07T13:24:35.443Z,6.50
2019-06-07T13:27:04.704Z,7.25
2019-06-07T13:29:35.157Z,7.58
2019-06-07T13:32:04.373Z,7.00
2019-06-07T13:34:33.661Z,7.80
2019-06-07T13:37:03.005Z,9.23
2019-06-07T13:39:32.242Z,8.75
2019-06-07T13:42:01.500Z,8.10
2019-06-07T13:44:30.794Z,7.00
2019-06-07T13:47:02.651Z,8.78
2019-06-07T13:49:31.857Z,7.85
2019-06-07T13:52:01.196Z,7.03
2019-06-07T13:54:30.826Z,6.47
2019-06-07T13:57:02.607Z,7.47
2019-06-07T13:59:31.027Z,7.70
2019-06-07T14:02:01.796Z,8.25
2019-06-07T14:04:31.158Z,7.67
2019-06-07T14:07:03.632Z,7.03
2019-06-07T14:09:32.995Z,6.45
2019-06-07T14:12:02.264Z,7.72
2019-06-07T14:14:31.545Z,6.80
2019-06-07T14:17:00.803Z,7.28
2019-06-07T14:19:30.761Z,8.90
2019-06-07T14:22:00.894Z,6.95
2019-06-07T14:24:31.232Z,16.42
2019-06-07T14:27:07.555Z,10.40
2019-06-07T14:29:37.721Z,7.90
2019-06-07T14:32:07.678Z,7.40
2019-06-07T14:34:37.158Z,7.17
2019-06-07T14:37:09.412Z,6.97
2019-06-07T14:39:38.722Z,6.90
2019-06-07T14:42:10.211Z,6.35
2019-06-07T14:44:38.960Z,8.03
2019-06-07T14:47:08.223Z,7.28
2019-06-07T14:49:37.522Z,6.10
2019-06-07T14:52:06.958Z,7.92
2019-06-07T14:54:39.058Z,6.42
2019-06-07T14:57:07.345Z,8.80
2019-06-07T14:59:36.601Z,8.43
2019-06-07T15:02:05.877Z,6.10
2019-06-07T15:04:35.143Z,8.00
2019-06-07T15:07:04.447Z,6.37
2019-06-07T15:09:35.062Z,6.42
2019-06-07T15:12:04.723Z,6.80
2019-06-07T15:14:35.407Z,7.95
2019-06-07T15:17:04.982Z,5.78
2019-06-07T15:19:36.272Z,7.92
2019-06-07T15:22:05.339Z,8.10
2019-06-07T15:24:38.618Z,6.10
2019-06-07T15:27:05.699Z,6.92
2019-06-07T15:29:35.996Z,7.45
2019-06-07T15:32:05.875Z,5.47
2019-06-07T15:34:36.341Z,6.58
2019-06-07T15:37:05.700Z,7.08
2019-06-07T15:39:34.987Z,6.42
2019-06-07T15:42:06.611Z,6.03
2019-06-07T15:44:35.946Z,7.22
2019-06-07T15:47:06.348Z,9.00
2019-06-07T15:49:43.392Z,7.03
2019-06-07T15:52:12.699Z,5.25
2019-06-07T15:54:44.250Z,5.28
2019-06-07T15:57:13.674Z,8.28
2019-06-07T15:59:43.036Z,6.33
2019-06-07T16:02:12.323Z,6.20
2019-06-07T16:04:43.658Z,5.75
2019-06-07T16:07:15.285Z,11.43
2019-06-07T16:09:44.909Z,6.33
2019-06-07T16:12:14.208Z,6.85
2019-06-07T16:14:43.749Z,6.90
2019-06-07T16:17:13.043Z,7.87
2019-06-07T16:19:44.942Z,5.90
2019-06-07T16:22:13.271Z,5.55
2019-06-07T16:24:45.334Z,6.70
2019-06-07T16:27:14.599Z,5.75
2019-06-07T16:29:47.672Z,5.65
2019-06-07T16:32:16.966Z,4.60
2019-06-07T16:34:46.258Z,5.83
2019-06-07T16:37:16.112Z,5.60
2019-06-07T16:39:46.166Z,7.12
2019-06-07T16:42:15.587Z,5.17
2019-06-07T16:44:44.902Z,4.80
2019-06-07T16:47:14.244Z,4.60
2019-06-07T16:49:45.097Z,7.70
2019-06-07T16:52:17.473Z,4.97
2019-06-07T16:54:47.654Z,5.25
2019-06-07T16:57:17.514Z,5.87
2019-06-07T16:59:49.088Z,6.12
2019-06-07T17:02:19.139Z,5.25
2019-06-07T17:04:48.375Z,5.70
2019-06-07T17:07:17.700Z,4.33
2019-06-07T17:09:47.779Z,4.70
2019-06-07T17:12:18.678Z,4.00
2019-06-07T17:14:49.556Z,7.60
2019-06-07T17:17:18.845Z,4.60
2019-06-07T17:19:49.228Z,6.70
2019-06-07T17:22:21.021Z,7.50
2019-06-07T17:24:50.381Z,8.55
2019-06-07T17:27:19.662Z,5.85
2019-06-07T17:29:50.094Z,5.60
2019-06-07T17:32:19.565Z,5.12
2019-06-07T17:34:50.054Z,5.85
2019-06-07T17:37:19.608Z,5.45
2019-06-07T17:39:48.934Z,4.80
2019-06-07T17:42:20.315Z,8.28
2019-06-07T17:44:49.644Z,6.00
2019-06-07T17:47:18.987Z,6.17
2019-06-07T17:49:48.276Z,6.40
2019-06-07T17:52:17.546Z,5.95
2019-06-07T17:54:47.931Z,5.55
2019-06-07T17:57:17.520Z,5.67
2019-06-07T17:59:50.633Z,4.80
2019-06-07T18:02:20.023Z,6.85
2019-06-07T18:04:51.348Z,6.42
2019-06-07T18:07:24.012Z,6.28
2019-06-07T18:09:58.268Z,5.08
2019-06-07T18:12:31.664Z,9.73
2019-06-07T18:15:12.615Z,7.12
2019-06-07T18:17:41.900Z,7.90
2019-06-07T18:20:11.579Z,11.22
2019-06-07T18:22:40.856Z,8.25
2019-06-07T18:25:10.356Z,8.18
2019-06-07T18:27:39.644Z,9.70
2019-06-07T18:30:11.584Z,12.50
2019-06-07T18:32:40.168Z,9.78
2019-06-07T18:35:09.674Z,8.58
2019-06-07T18:37:39.110Z,12.90
2019-06-07T18:40:09.617Z,8.05
2019-06-07T18:42:38.926Z,10.40
2019-06-07T18:45:08.491Z,10.23
2019-06-07T18:47:37.798Z,10.00
2019-06-07T18:50:07.124Z,11.53
2019-06-07T18:52:37.810Z,10.58
2019-06-07T18:55:07.316Z,10.18
2019-06-07T18:57:36.612Z,9.45
2019-06-07T19:00:07.930Z,10.68
2019-06-07T19:02:37.235Z,9.30
2019-06-07T19:05:06.739Z,10.58
2019-06-07T19:07:36.037Z,9.67
2019-06-07T19:10:06.175Z,12.13
2019-06-07T19:12:35.571Z,11.20
2019-06-07T19:15:06.527Z,11.05
2019-06-07T19:17:35.870Z,9.53
2019-06-07T19:20:06.342Z,11.05
2019-06-07T19:22:35.603Z,13.30
2019-06-07T19:25:05.364Z,10.40
2019-06-07T19:27:34.882Z,10.57
2019-06-07T19:30:06.025Z,10.77
2019-06-07T19:32:35.800Z,10.33
2019-06-07T19:35:05.859Z,10.23
2019-06-07T19:37:35.268Z,10.73
2019-06-07T19:40:05.443Z,11.97
2019-06-07T19:42:35.095Z,10.80
2019-06-07T19:45:28.816Z,11.97
2019-06-07T19:47:36.472Z,10.07
2019-06-07T19:50:06.590Z,12.40
2019-06-07T19:52:37.641Z,12.97
2019-06-07T19:55:09.683Z,12.43
2019-06-07T19:57:40.127Z,12.87
2019-06-07T20:00:14.747Z,11.63
2019-06-07T20:02:42.591Z,11.47
2019-06-07T20:05:13.839Z,13.43
2019-06-07T20:07:43.565Z,13.90
2019-06-07T20:10:13.641Z,12.67
2019-06-07T20:12:43.118Z,11.43
2019-06-07T20:15:27.831Z,12.00
2019-06-07T20:17:44.278Z,14.03
2019-06-07T20:20:14.250Z,12.53
2019-06-07T20:22:43.590Z,12.87
2019-06-07T20:25:13.212Z,10.73
2019-06-07T20:27:42.519Z,12.50
2019-06-07T20:30:12.450Z,12.97
2019-06-07T20:32:41.720Z,13.13
2019-06-07T20:35:11.945Z,13.73
2019-06-07T20:37:41.269Z,13.77
2019-06-07T20:40:23.723Z,17.00
2019-06-07T20:42:42.012Z,15.53
2019-06-07T20:45:11.820Z,14.47
2019-06-07T20:47:41.122Z,14.63
2019-06-07T20:50:10.708Z,15.13
2019-06-07T20:52:40.060Z,13.73
2019-06-07T20:55:10.021Z,17.13
2019-06-07T20:57:39.297Z,13.03
2019-06-07T21:00:14.314Z,13.00
2019-06-07T21:02:40.148Z,14.90
2019-06-07T21:05:10.656Z,15.27
2019-06-07T21:07:39.924Z,13.37
2019-06-07T21:10:10.655Z,14.90
2019-06-07T21:12:40.163Z,15.30
2019-06-07T21:15:14.074Z,15.10
2019-06-07T21:17:41.448Z,17.93
2019-06-07T21:20:14.264Z,16.53
2019-06-07T21:22:42.265Z,17.63
2019-06-07T21:25:11.898Z,15.87
2019-06-07T21:27:41.346Z,16.80
2019-06-07T21:30:11.657Z,17.13
2019-06-07T21:32:41.191Z,18.97
2019-06-07T21:35:12.231Z,20.50
2019-06-07T21:37:41.715Z,19.03
2019-06-07T21:40:12.227Z,17.53
2019-06-07T21:42:41.566Z,17.47
2019-06-07T21:45:11.816Z,17.43
2019-06-07T21:47:41.240Z,16.57
2019-06-07T21:50:12.655Z,17.77
2019-06-07T21:52:42.215Z,16.17
2019-06-07T21:55:11.887Z,15.37
2019-06-07T21:57:41.131Z,18.40
2019-06-07T22:00:15.487Z,18.67
2019-06-07T22:02:44.742Z,17.83
2019-06-07T22:05:14.590Z,16.77
2019-06-07T22:07:43.837Z,17.23
2019-06-07T22:10:14.410Z,17.53
2019-06-07T22:12:43.837Z,16.70
2019-06-07T22:15:31.172Z,18.07
2019-06-07T22:17:44.407Z,18.53
2019-06-07T22:20:14.749Z,16.67
2019-06-07T22:22:44.051Z,18.43
2019-06-07T22:25:13.316Z,16.37
2019-06-07T22:27:42.547Z,15.13
2019-06-07T22:30:12.610Z,16.70
2019-06-07T22:32:41.874Z,15.03
2019-06-07T22:35:13.018Z,18.53
2019-06-07T22:37:42.229Z,17.30
2019-06-07T22:40:12.520Z,19.33
2019-06-07T22:42:41.844Z,19.53
2019-06-07T22:45:11.206Z,18.90
2019-06-07T22:47:40.545Z,19.47
2019-06-07T22:50:11.055Z,19.93
2019-06-07T22:52:41.875Z,18.23
2019-06-07T22:55:12.129Z,20.90
2019-06-07T22:57:56.742Z,22.60
2019-06-07T23:00:27.216Z,19.20
2019-06-07T23:02:56.556Z,22.93
2019-06-07T23:05:25.811Z,23.63
2019-06-07T23:07:55.107Z,23.20
2019-06-07T23:10:24.343Z,24.43
2019-06-07T23:12:53.567Z,22.73
2019-06-07T23:15:22.811Z,22.57
2019-06-07T23:17:52.065Z,22.50
2019-06-07T23:20:22.533Z,24.30
2019-06-07T23:22:52.095Z,21.90
2019-06-07T23:25:24.295Z,20.00
2019-06-07T23:27:52.258Z,21.13
2019-06-07T23:30:21.863Z,20.90
2019-06-07T23:32:51.229Z,17.53
2019-06-07T23:35:21.177Z,17.90
2019-06-07T23:37:50.511Z,20.97
2019-06-07T23:40:19.792Z,18.40
2019-06-07T23:42:49.048Z,17.73
2019-06-07T23:45:19.417Z,18.00
2019-06-07T23:47:48.760Z,17.43
2019-06-07T23:50:19.778Z,15.80
2019-06-07T23:52:49.156Z,21.17
2019-06-07T23:55:19.969Z,18.23
2019-06-07T23:57:49.438Z,19.93
